createdAt,value
2023-05-19T00:01:49.297Z,100258.19
2023-05-19T00:05:53.378Z,100261.13
2023-05-19T00:09:55.477Z,100262.41
2023-05-19T00:13:59.423Z,100264.06
2023-05-19T00:18:01.011Z,100262.41
2023-05-19T00:22:04.314Z,100251.09
2023-05-19T00:26:06.232Z,100250.66
2023-05-19T00:30:08.783Z,100241.00
2023-05-19T00:34:10.378Z,100241.84
2023-05-19T00:38:13.311Z,100246.47
2023-05-19T00:42:14.909Z,100247.31
2023-05-19T00:46:16.487Z,100241.44
2023-05-19T00:50:18.061Z,100243.56
2023-05-19T00:54:21.319Z,100249.41
2023-05-19T00:58:22.939Z,100239.97
2023-05-19T01:02:24.700Z,100246.06
2023-05-19T01:06:26.393Z,100236.00
2023-05-19T01:10:29.343Z,100229.91
2023-05-19T01:14:30.947Z,100235.97
2023-05-19T01:18:40.976Z,100238.09
2023-05-19T01:23:17.729Z,100233.03
2023-05-19T01:27:42.634Z,100235.53
2023-05-19T01:31:46.229Z,100232.16
2023-05-19T01:35:49.478Z,100230.25
2023-05-19T01:39:52.066Z,100238.41
2023-05-19T01:43:53.847Z,100239.66
2023-05-19T01:47:59.682Z,100234.09
2023-05-19T01:52:01.254Z,100252.47
2023-05-19T01:56:03.117Z,100238.81
2023-05-19T02:00:13.005Z,100237.06
2023-05-19T02:04:25.191Z,100233.59
2023-05-19T02:08:33.915Z,100228.72
2023-05-19T02:12:38.439Z,100229.09
2023-05-19T02:16:45.029Z,100231.13
2023-05-19T02:20:47.913Z,100227.50
2023-05-19T02:24:49.488Z,100232.25
2023-05-19T02:28:51.000Z,100228.25
2023-05-19T02:32:52.574Z,100228.44
2023-05-19T02:36:55.520Z,100228.78
2023-05-19T02:40:57.045Z,100226.44
2023-05-19T02:44:58.582Z,100228.94
2023-05-19T02:49:00.164Z,100217.16
2023-05-19T02:53:04.378Z,100217.53
2023-05-19T02:57:05.975Z,100223.34
2023-05-19T03:01:07.515Z,100217.94
2023-05-19T03:05:09.991Z,100211.66
2023-05-19T03:09:13.250Z,100217.88
2023-05-19T03:13:14.777Z,100202.13
2023-05-19T03:17:16.359Z,100189.38
2023-05-19T03:21:17.881Z,100195.06
2023-05-19T03:25:20.844Z,100206.94
2023-05-19T03:29:22.555Z,100205.94
2023-05-19T03:33:24.277Z,100213.94
2023-05-19T03:37:25.933Z,100217.69
2023-05-19T03:41:28.810Z,100213.94
2023-05-19T03:45:30.384Z,100206.63
2023-05-19T03:49:31.938Z,100210.19
2023-05-19T03:53:33.510Z,100211.88
2023-05-19T03:57:36.448Z,100206.38
2023-05-19T04:01:38.028Z,100209.16
2023-05-19T04:05:39.589Z,100218.44
2023-05-19T04:09:41.103Z,100218.81
2023-05-19T04:13:45.178Z,100217.88
2023-05-19T04:17:46.978Z,100221.50
2023-05-19T04:21:48.566Z,100211.34
2023-05-19T04:25:50.300Z,100220.47
2023-05-19T04:29:53.241Z,100215.94
2023-05-19T04:33:54.774Z,100218.47
2023-05-19T04:37:56.301Z,100224.19
2023-05-19T04:41:57.834Z,100226.28
2023-05-19T04:46:00.764Z,100220.50
2023-05-19T04:50:02.384Z,100215.28
2023-05-19T04:54:04.137Z,100211.31
2023-05-19T04:58:05.667Z,100211.16
2023-05-19T05:02:08.629Z,100210.75
2023-05-19T05:06:10.205Z,100215.81
2023-05-19T05:10:11.756Z,100213.34
2023-05-19T05:14:13.941Z,100213.75
2023-05-19T05:18:17.436Z,100212.09
2023-05-19T05:22:19.548Z,100207.44
2023-05-19T05:26:21.733Z,100214.13
2023-05-19T05:30:23.269Z,100212.88
2023-05-19T05:34:26.242Z,100221.69
2023-05-19T05:38:27.785Z,100221.19
2023-05-19T05:42:29.839Z,100228.25
2023-05-19T05:46:32.536Z,100232.88
2023-05-19T05:50:36.286Z,100226.56
2023-05-19T05:54:38.530Z,100225.47
2023-05-19T05:58:40.048Z,100226.16
2023-05-19T06:02:43.037Z,100237.66
2023-05-19T06:06:45.938Z,100233.06
2023-05-19T06:10:47.611Z,100230.81
2023-05-19T06:14:49.147Z,100230.97
2023-05-19T06:18:50.706Z,100228.94
2023-05-19T06:22:53.596Z,100230.31
2023-05-19T06:26:55.131Z,100227.22
2023-05-19T06:30:56.692Z,100226.75
2023-05-19T06:34:58.367Z,100224.09
2023-05-19T06:39:02.660Z,100221.81
2023-05-19T06:43:04.509Z,100218.06
2023-05-19T06:47:06.186Z,100218.81
2023-05-19T06:51:07.773Z,100218.25
2023-05-19T06:55:10.749Z,100206.13
2023-05-19T06:59:12.275Z,100208.34
2023-05-19T07:03:13.947Z,100202.69
2023-05-19T07:07:15.625Z,100219.41
2023-05-19T07:11:18.514Z,100202.84
2023-05-19T07:15:20.050Z,100202.22
2023-05-19T07:19:21.650Z,100200.22
2023-05-19T07:23:23.197Z,100197.78
2023-05-19T07:27:26.537Z,100205.06
2023-05-19T07:31:28.349Z,100197.41
2023-05-19T07:35:30.071Z,100187.69
2023-05-19T07:39:31.586Z,100187.63
2023-05-19T07:43:34.468Z,100179.50
2023-05-19T07:47:36.125Z,100187.09
2023-05-19T07:51:37.781Z,100181.19
2023-05-19T07:55:39.341Z,100187.38
2023-05-19T07:59:42.218Z,100189.28
2023-05-19T08:03:43.828Z,100185.25
2023-05-19T08:07:45.492Z,100181.72
2023-05-19T08:11:47.023Z,100177.75
2023-05-19T08:15:50.013Z,100180.34
2023-05-19T08:19:51.592Z,100177.28
2023-05-19T08:23:53.186Z,100189.53
2023-05-19T08:27:54.759Z,100178.25
2023-05-19T08:31:57.681Z,100195.53
2023-05-19T08:35:59.249Z,100187.91
2023-05-19T08:40:00.937Z,100171.78
2023-05-19T08:44:02.758Z,100179.19
2023-05-19T08:48:06.590Z,100173.84
2023-05-19T08:52:19.375Z,100171.97
2023-05-19T08:56:22.696Z,100179.13
2023-05-19T09:00:24.793Z,100180.28
2023-05-19T09:04:29.900Z,100178.81
2023-05-19T09:08:31.759Z,100177.41
2023-05-19T09:12:33.633Z,100178.16
2023-05-19T09:16:35.259Z,100172.75
2023-05-19T09:20:39.945Z,100164.28
2023-05-19T09:24:41.795Z,100161.25
2023-05-19T09:28:43.333Z,100154.56
2023-05-19T09:32:45.328Z,100146.91
2023-05-19T09:36:48.829Z,100158.88
2023-05-19T09:40:50.478Z,100147.41
2023-05-19T09:44:59.597Z,100144.53
2023-05-19T09:49:08.936Z,100142.47
2023-05-19T09:53:13.939Z,100141.13
2023-05-19T09:57:15.829Z,100133.81
2023-05-19T10:01:17.913Z,100127.44
2023-05-19T10:05:20.808Z,100124.19
2023-05-19T10:09:26.681Z,100112.59
2023-05-19T10:13:29.656Z,100126.25
2023-05-19T10:17:32.357Z,100124.66
2023-05-19T10:21:33.942Z,100119.25
2023-05-19T10:25:37.783Z,100126.97
2023-05-19T10:29:42.776Z,100122.78
2023-05-19T10:34:00.840Z,100116.66
2023-05-19T10:38:13.234Z,100111.00
2023-05-19T10:42:26.234Z,100115.59
2023-05-19T10:46:29.260Z,100113.06
2023-05-19T10:50:35.914Z,100117.34
2023-05-19T10:54:40.675Z,100111.28
2023-05-19T10:58:53.244Z,100117.91
2023-05-19T11:03:11.652Z,100106.88
2023-05-19T11:07:17.506Z,100109.66
2023-05-19T11:11:19.056Z,100111.63
2023-05-19T11:15:25.532Z,100110.63
2023-05-19T11:19:28.634Z,100113.59
2023-05-19T11:23:35.596Z,100104.25
2023-05-19T11:27:37.295Z,100104.06
2023-05-19T11:31:43.539Z,100106.31
2023-05-19T11:35:46.465Z,100112.28
2023-05-19T11:39:48.361Z,100111.59
2023-05-19T11:43:49.888Z,100112.94
2023-05-19T11:52:01.807Z,100103.69
2023-05-19T11:56:03.963Z,100095.25
2023-05-19T12:00:07.640Z,100106.94
2023-05-19T12:04:10.588Z,100089.66
2023-05-19T12:08:12.424Z,100096.56
2023-05-19T12:12:15.650Z,100111.63
2023-05-19T12:16:20.230Z,100114.25
2023-05-19T12:20:23.866Z,100098.50
2023-05-19T12:24:25.603Z,100101.34
2023-05-19T12:28:30.119Z,100094.91
2023-05-19T12:32:33.867Z,100089.91
2023-05-19T12:36:37.070Z,100079.75
2023-05-19T12:40:39.506Z,100078.03
2023-05-19T12:44:44.177Z,100083.38
2023-05-19T12:48:46.834Z,100095.53
2023-05-19T12:52:50.186Z,100088.56
2023-05-19T12:56:52.690Z,100081.69
2023-05-19T13:00:58.939Z,100074.44
2023-05-19T13:05:00.642Z,100070.56
2023-05-19T13:09:03.653Z,100063.06
2023-05-19T13:13:05.835Z,100060.28
2023-05-19T13:17:07.385Z,100054.88
2023-05-19T13:21:08.975Z,100071.19
2023-05-19T13:25:11.866Z,100055.84
2023-05-19T13:29:13.471Z,100085.25
2023-05-19T13:33:15.100Z,100078.59
2023-05-19T13:37:16.809Z,100064.53
2023-05-19T13:41:23.954Z,100062.22
2023-05-19T13:45:25.487Z,100070.00
2023-05-19T13:49:27.051Z,100063.28
2023-05-19T13:53:28.588Z,100064.25
2023-05-19T13:57:31.492Z,100059.44
2023-05-19T14:01:33.123Z,100064.03
2023-05-19T14:05:34.743Z,100057.72
2023-05-19T14:09:36.443Z,100060.09
2023-05-19T14:17:41.512Z,100062.16
2023-05-19T14:21:43.252Z,100075.84
2023-05-19T14:25:44.815Z,100059.44
2023-05-19T14:29:47.689Z,100060.81
2023-05-19T14:33:49.649Z,100063.91
2023-05-19T14:37:51.325Z,100055.13
2023-05-19T14:41:52.832Z,100050.56
2023-05-19T14:45:56.599Z,100060.41
2023-05-19T14:49:58.144Z,100049.06
2023-05-19T14:53:59.701Z,100065.84
2023-05-19T14:58:01.267Z,100059.09
2023-05-19T15:02:04.300Z,100071.00
2023-05-19T15:06:08.491Z,100072.94
2023-05-19T15:10:10.295Z,100068.75
2023-05-19T15:14:11.830Z,100078.97
2023-05-19T15:18:14.746Z,100082.28
2023-05-19T15:22:16.398Z,100072.75
2023-05-19T15:26:17.984Z,100078.69
2023-05-19T15:30:19.550Z,100081.25
2023-05-19T15:34:22.512Z,100084.06
2023-05-19T15:38:24.048Z,100080.38
2023-05-19T15:42:25.580Z,100072.63
2023-05-19T15:46:27.236Z,100075.59
2023-05-19T15:50:30.332Z,100077.56
2023-05-19T15:54:31.884Z,100082.47
2023-05-19T15:58:33.434Z,100075.97
2023-05-19T16:02:35.214Z,100092.53
2023-05-19T16:06:38.164Z,100082.56
2023-05-19T16:10:39.696Z,100102.16
2023-05-19T16:14:41.223Z,100092.25
2023-05-19T16:18:42.787Z,100101.03
2023-05-19T16:22:45.683Z,100092.56
2023-05-19T16:26:47.210Z,100095.75
2023-05-19T16:30:48.772Z,100100.00
2023-05-19T16:34:50.312Z,100102.13
2023-05-19T16:38:53.205Z,100100.94
2023-05-19T16:42:54.728Z,100093.78
2023-05-19T16:46:56.278Z,100095.09
2023-05-19T16:50:57.829Z,100105.94
2023-05-19T16:55:00.834Z,100115.97
2023-05-19T16:59:02.384Z,100111.72
2023-05-19T17:03:04.557Z,100106.84
2023-05-19T17:07:06.195Z,100095.59
2023-05-19T17:11:09.163Z,100101.09
2023-05-19T17:15:11.106Z,100094.44
2023-05-19T17:19:12.887Z,100094.09
2023-05-19T17:23:14.430Z,100104.25
2023-05-19T17:27:17.313Z,100101.41
2023-05-19T17:31:18.844Z,100101.25
2023-05-19T17:35:20.370Z,100110.09
2023-05-19T17:39:21.894Z,100106.75
2023-05-19T17:43:24.926Z,100118.75
2023-05-19T17:47:26.544Z,100118.28
2023-05-19T17:51:28.797Z,100113.41
2023-05-19T17:55:31.096Z,100116.91
2023-05-19T17:59:34.736Z,100111.81
2023-05-19T18:03:36.940Z,100113.63
2023-05-19T18:07:39.616Z,100114.22
2023-05-19T18:11:41.178Z,100112.84
2023-05-19T18:15:44.090Z,100102.59
2023-05-19T18:19:45.632Z,100107.75
2023-05-19T18:23:47.162Z,100100.13
2023-05-19T18:27:48.706Z,100104.47
2023-05-19T18:31:51.615Z,100111.63
2023-05-19T18:35:53.161Z,100104.34
2023-05-19T18:39:54.929Z,100108.06
2023-05-19T18:43:56.461Z,100105.00
2023-05-19T18:47:59.371Z,100120.19
2023-05-19T18:52:00.928Z,100121.13
2023-05-19T18:56:03.168Z,100115.91
2023-05-19T19:00:05.758Z,100128.44
2023-05-19T19:04:08.717Z,100128.56
2023-05-19T19:08:10.270Z,100127.03
2023-05-19T19:12:11.872Z,100124.88
2023-05-19T19:16:13.626Z,100125.84
2023-05-19T19:20:16.659Z,100130.59
2023-05-19T19:24:18.177Z,100127.75
2023-05-19T19:28:19.700Z,100131.09
2023-05-19T19:32:21.224Z,100129.78
2023-05-19T19:36:24.521Z,100137.06
2023-05-19T19:40:26.077Z,100136.72
2023-05-19T19:44:27.647Z,100132.41
2023-05-19T19:48:29.195Z,100138.00
2023-05-19T19:52:32.109Z,100132.06
2023-05-19T19:56:33.790Z,100129.19
2023-05-19T20:00:35.467Z,100126.31
2023-05-19T20:04:37.178Z,100127.88
2023-05-19T20:08:40.102Z,100127.59
2023-05-19T20:12:41.644Z,100134.63
2023-05-19T20:16:43.304Z,100142.41
2023-05-19T20:20:44.918Z,100138.09
2023-05-19T20:24:47.793Z,100133.47
2023-05-19T20:28:49.305Z,100136.00
2023-05-19T20:32:50.922Z,100126.56
2023-05-19T20:36:52.465Z,100134.75
2023-05-19T20:40:55.351Z,100134.50
2023-05-19T20:44:57.123Z,100133.69
2023-05-19T20:48:58.650Z,100130.34
2023-05-19T20:53:00.690Z,100136.19
2023-05-19T20:57:03.696Z,100137.75
2023-05-19T21:01:05.363Z,100136.44
2023-05-19T21:05:07.563Z,100132.63
2023-05-19T21:09:09.098Z,100136.81
2023-05-19T21:13:12.104Z,100127.38
2023-05-19T21:17:13.669Z,100125.13
2023-05-19T21:21:15.231Z,100126.78
2023-05-19T21:25:16.993Z,100121.31
2023-05-19T21:29:19.913Z,100126.41
2023-05-19T21:33:21.539Z,100138.84
2023-05-19T21:37:23.152Z,100145.84
2023-05-19T21:41:24.706Z,100132.75
2023-05-19T21:45:27.989Z,100139.91
2023-05-19T21:49:29.514Z,100138.13
2023-05-19T21:53:31.021Z,100137.13
2023-05-19T21:57:32.674Z,100136.06
2023-05-19T22:01:35.650Z,100127.72
2023-05-19T22:05:37.405Z,100137.25
2023-05-19T22:09:38.982Z,100132.84
2023-05-19T22:13:40.577Z,100121.75
2023-05-19T22:17:43.650Z,100126.16
2023-05-19T22:21:45.233Z,100126.84
2023-05-19T22:25:46.769Z,100123.88
2023-05-19T22:29:48.312Z,100134.84
2023-05-19T22:33:51.252Z,100126.03
2023-05-19T22:37:52.899Z,100124.34
2023-05-19T22:41:54.427Z,100118.72
2023-05-19T22:45:55.962Z,100123.03
2023-05-19T22:49:58.830Z,100125.78
2023-05-19T22:54:00.384Z,100109.31
2023-05-19T22:58:01.903Z,100097.16
2023-05-19T23:02:03.570Z,100108.94
2023-05-19T23:06:06.478Z,100110.72
2023-05-19T23:10:08.823Z,100106.44
2023-05-19T23:14:10.457Z,100108.69
2023-05-19T23:18:12.055Z,100109.78
2023-05-19T23:22:15.855Z,100115.25
2023-05-19T23:26:17.377Z,100122.53
2023-05-19T23:30:19.038Z,100116.19
2023-05-19T23:34:20.592Z,100106.44
2023-05-19T23:38:23.498Z,100109.75
2023-05-19T23:42:25.049Z,100120.97
2023-05-19T23:46:26.721Z,100112.50
2023-05-19T23:50:28.374Z,100102.81
2023-05-19T23:54:31.310Z,100103.31
2023-05-19T23:58:32.852Z,100095.78
